Time;durP1;ratioP1;P1;durP2;ratioP2;P2;SDS_P1;SDS_P2;PMS_P1;PMS_P2;Temp;Humidity;BMP_temperature;BMP_pressure;BME280_temperature;BME280_humidity;BME280_pressure;Samples;Min_cycle;Max_cycle;Signal;HPM_P1;HPM_P2
2022/12/25 00:01:25;;;;;;;36.35;15.48;;;;;;;;;;1750022;82;26070;-61
2022/12/25 00:03:54;;;;;;;33.55;15.23;;;;;;;;;;1697308;83;25650;-60
2022/12/25 00:06:23;;;;;;;21.60;10.13;;;;;;;;;;1718009;82;27478;-60
2022/12/25 00:08:52;;;;;;;35.15;14.95;;;;;;;;;;1717276;83;31243;-61
2022/12/25 00:11:22;;;;;;;33.70;15.13;;;;;;;;;;1717441;83;25436;-59
2022/12/25 00:13:53;;;;;;;31.45;14.45;;;;;;;;;;1717317;83;25583;-59
2022/12/25 00:16:25;;;;;;;35.75;16.50;;;;;;;;;;1717233;83;25563;-59
2022/12/25 00:18:52;;;;;;;33.45;15.38;;;;;;;;;;1746976;82;27393;-61
2022/12/25 00:21:22;;;;;;;31.87;15.50;;;;;;;;;;1717158;83;25524;-61
2022/12/25 00:23:53;;;;;;;34.80;15.60;;;;;;;;;;1715794;83;25405;-59
2022/12/25 00:26:20;;;;;;;34.25;15.40;;;;;;;;;;1745913;82;26350;-60
2022/12/25 00:28:58;;;;;;;36.00;14.85;;;;;;;;;;1717296;83;25470;-60
2022/12/25 00:31:28;;;;;;;36.35;14.87;;;;;;;;;;1717226;83;27697;-60
2022/12/25 00:33:54;;;;;;;32.42;14.58;;;;;;;;;;1717112;83;25549;-59
2022/12/25 00:36:25;;;;;;;30.83;14.70;;;;;;;;;;1747360;82;25635;-61
2022/12/25 00:38:51;;;;;;;35.95;15.53;;;;;;;;;;1747043;82;25697;-59
2022/12/25 00:43:50;;;;;;;33.83;15.58;;;;;;;;;;1688040;85;27981;-59
2022/12/25 00:46:18;;;;;;;35.03;16.20;;;;;;;;;;1688015;85;31257;-59
2022/12/25 00:48:47;;;;;;;38.45;16.70;;;;;;;;;;1688203;85;25521;-61
2022/12/25 00:51:15;;;;;;;28.85;14.68;;;;;;;;;;1688068;85;25733;-61
2022/12/25 00:53:41;;;;;;;23.15;10.53;;;;;;;;;;1688271;85;25521;-60
2022/12/25 00:56:09;;;;;;;33.92;14.23;;;;;;;;;;1687946;85;27382;-60
2022/12/25 00:58:36;;;;;;;33.85;13.10;;;;;;;;;;1688093;85;25459;-61
2022/12/25 01:01:03;;;;;;;27.85;13.03;;;;;;;;;;1688045;85;25722;-61
2022/12/25 01:03:30;;;;;;;28.70;12.75;;;;;;;;;;1688048;85;25696;-59
2022/12/25 01:06:00;;;;;;;28.92;12.73;;;;;;;;;;1687972;85;25616;-61
2022/12/25 01:08:29;;;;;;;29.85;12.37;;;;;;;;;;1688013;85;27419;-59
2022/12/25 01:10:59;;;;;;;24.80;12.53;;;;;;;;;;1688108;85;25640;-58
2022/12/25 01:13:29;;;;;;;26.30;11.25;;;;;;;;;;1688107;85;25694;-59
2022/12/25 01:15:58;;;;;;;23.22;11.68;;;;;;;;;;1688032;85;25730;-59
2022/12/25 01:18:27;;;;;;;24.18;11.18;;;;;;;;;;1688303;85;25240;-61
2022/12/25 01:20:53;;;;;;;24.82;10.45;;;;;;;;;;1697190;83;27304;-61
2022/12/25 01:23:19;;;;;;;55.73;51.08;;;;;;;;;;1717173;83;25501;-59
2022/12/25 01:25:46;;;;;;;75.50;69.45;;;;;;;;;;1699150;84;25406;-61
2022/12/25 01:28:12;;;;;;;22.50;10.35;;;;;;;;;;1720466;83;25686;-58
2022/12/25 01:30:43;;;;;;;24.00;10.50;;;;;;;;;;1747085;82;25637;-59
2022/12/25 01:33:12;;;;;;;21.70;10.63;;;;;;;;;;1690234;83;27307;-59
2022/12/25 01:35:42;;;;;;;14.70;6.35;;;;;;;;;;1715644;83;25530;-59
2022/12/25 01:38:11;;;;;;;21.30;9.65;;;;;;;;;;1747123;82;25485;-59
2022/12/25 01:40:38;;;;;;;19.45;8.38;;;;;;;;;;1717353;83;25562;-59
2022/12/25 01:43:23;;;;;;;23.05;11.35;;;;;;;;;;1717178;83;25473;-60
2022/12/25 01:45:51;;;;;;;20.08;8.18;;;;;;;;;;1717160;83;27405;-59
2022/12/25 01:48:21;;;;;;;52.23;47.83;;;;;;;;;;1717056;83;25415;-59
2022/12/25 01:50:53;;;;;;;56.20;51.37;;;;;;;;;;1716821;83;25608;-59
2022/12/25 01:53:21;;;;;;;23.20;10.15;;;;;;;;;;1717181;83;26296;-59
2022/12/25 01:55:51;;;;;;;55.80;50.70;;;;;;;;;;1746935;82;25454;-59
2022/12/25 01:58:18;;;;;;;85.55;78.62;;;;;;;;;;1717140;83;27384;-59
2022/12/25 02:00:46;;;;;;;40.03;35.90;;;;;;;;;;1715561;83;25427;-57
2022/12/25 02:03:14;;;;;;;20.80;10.18;;;;;;;;;;1746890;82;25384;-59
2022/12/25 02:05:42;;;;;;;21.15;9.35;;;;;;;;;;1692669;83;25669;-59
2022/12/25 02:08:11;;;;;;;18.85;9.33;;;;;;;;;;1715899;83;25404;-59
2022/12/25 02:10:42;;;;;;;12.65;5.95;;;;;;;;;;1747320;82;27701;-59
2022/12/25 02:13:13;;;;;;;19.05;8.25;;;;;;;;;;1717373;83;25618;-60
2022/12/25 02:15:49;;;;;;;23.12;8.80;;;;;;;;;;1717465;83;25541;-60
2022/12/25 02:18:22;;;;;;;21.20;9.50;;;;;;;;;;1717487;83;25794;-60
2022/12/25 02:21:10;;;;;;;20.85;9.15;;;;;;;;;;1718893;83;25566;-60
2022/12/25 02:24:02;;;;;;;17.85;9.03;;;;;;;;;;1747279;82;27416;-60
2022/12/25 02:27:04;;;;;;;24.15;9.70;;;;;;;;;;1693927;83;26143;-60
2022/12/25 02:29:42;;;;;;;21.02;9.55;;;;;;;;;;1662220;86;25675;-60
2022/12/25 02:32:21;;;;;;;21.48;9.03;;;;;;;;;;1695381;84;25844;-60
2022/12/25 02:34:59;;;;;;;23.05;9.40;;;;;;;;;;1695405;84;25468;-60
2022/12/25 02:37:30;;;;;;;19.20;9.78;;;;;;;;;;1668093;86;27317;-59
2022/12/25 02:40:03;;;;;;;18.92;8.60;;;;;;;;;;1692517;84;25527;-60
2022/12/25 03:08:00;;;;;;;26.20;10.53;;;;;;;;;;1654728;85;27032;-59
2022/12/25 03:13:19;;;;;;;21.48;11.78;;;;;;;;;;1643521;87;25683;-59
2022/12/25 03:18:34;;;;;;;23.85;9.65;;;;;;;;;;1684226;85;27611;-56
2022/12/25 03:26:54;;;;;;;41.20;37.40;;;;;;;;;;1701147;83;25624;-58
2022/12/25 03:32:36;;;;;;;50.33;45.80;;;;;;;;;;1700131;84;27280;-58
2022/12/25 03:35:24;;;;;;;65.15;59.35;;;;;;;;;;1734891;82;25510;-59
2022/12/25 03:44:54;;;;;;;58.92;53.60;;;;;;;;;;1750268;82;25436;-59
2022/12/25 04:36:56;;;;;;;41.25;35.92;;;;;;;;;;1695771;84;27784;-60
2022/12/25 04:39:22;;;;;;;89.75;81.53;;;;;;;;;;1672455;84;25688;-60
2022/12/25 04:41:48;;;;;;;88.57;81.07;;;;;;;;;;1695747;84;29547;-59
2022/12/25 04:44:14;;;;;;;90.83;82.40;;;;;;;;;;1695632;84;26444;-60
2022/12/25 04:46:40;;;;;;;91.03;81.87;;;;;;;;;;1695752;84;25742;-60
2022/12/25 04:49:09;;;;;;;89.85;81.87;;;;;;;;;;1695719;84;34843;-59
2022/12/25 04:51:36;;;;;;;90.40;82.00;;;;;;;;;;1695838;84;25623;-59
2022/12/25 04:54:06;;;;;;;;;;;;;;;;;;1698337;84;27353;-58
2022/12/25 04:56:33;;;;;;;88.82;81.02;;;;;;;;;;1695690;84;25665;-60
2022/12/25 04:58:59;;;;;;;91.70;82.95;;;;;;;;;;1695736;84;25619;-60
2022/12/25 05:01:25;;;;;;;89.32;81.00;;;;;;;;;;1693480;84;25676;-60
2022/12/25 05:03:52;;;;;;;91.00;83.10;;;;;;;;;;1731524;82;32290;-60
2022/12/25 05:06:18;;;;;;;92.05;84.17;;;;;;;;;;1748132;82;27400;-59
2022/12/25 05:08:44;;;;;;;91.47;83.20;;;;;;;;;;1747990;82;29336;-60
2022/12/25 05:11:14;;;;;;;93.05;84.83;;;;;;;;;;1748070;82;25498;-58
2022/12/25 05:13:43;;;;;;;89.83;81.95;;;;;;;;;;1748104;82;25675;-60
2022/12/25 05:16:12;;;;;;;93.52;84.97;;;;;;;;;;1748424;82;25578;-60
2022/12/25 05:18:40;;;;;;;89.25;81.50;;;;;;;;;;1748113;82;27398;-60
2022/12/25 05:21:06;;;;;;;94.50;85.22;;;;;;;;;;1747989;82;25512;-58
2022/12/25 05:23:34;;;;;;;90.38;82.15;;;;;;;;;;1724406;82;25526;-60
2022/12/25 05:26:05;;;;;;;91.80;83.25;;;;;;;;;;1748248;82;33261;-59
2022/12/25 05:28:34;;;;;;;91.72;83.10;;;;;;;;;;1748339;82;25506;-60
2022/12/25 05:31:03;;;;;;;90.20;82.30;;;;;;;;;;1748548;82;27432;-59
2022/12/25 05:33:29;;;;;;;90.10;82.15;;;;;;;;;;1748259;82;33085;-60
2022/12/25 05:35:55;;;;;;;90.77;82.43;;;;;;;;;;1748213;82;25588;-60
2022/12/25 05:38:23;;;;;;;94.30;85.55;;;;;;;;;;1748180;82;34402;-60
2022/12/25 05:40:51;;;;;;;90.62;82.45;;;;;;;;;;1748223;82;25446;-60
2022/12/25 05:43:20;;;;;;;95.70;86.40;;;;;;;;;;1748245;82;26489;-59
2022/12/25 05:45:45;;;;;;;53.63;47.50;;;;;;;;;;1748273;82;25569;-59
2022/12/25 05:48:11;;;;;;;31.27;12.27;;;;;;;;;;1748235;82;25794;-59
2022/12/25 05:50:37;;;;;;;34.83;11.53;;;;;;;;;;1748151;82;35073;-59
2022/12/25 05:53:07;;;;;;;30.92;11.22;;;;;;;;;;1748212;82;32321;-59
2022/12/25 05:55:35;;;;;;;;;;;;;;;;;;1748822;82;27337;-59
2022/12/25 05:58:05;;;;;;;32.05;10.58;;;;;;;;;;1748140;82;25537;-59
2022/12/25 06:00:34;;;;;;;44.88;13.65;;;;;;;;;;1748233;82;25626;-59
2022/12/25 06:03:03;;;;;;;38.90;13.70;;;;;;;;;;1750345;82;25679;-59
2022/12/25 06:05:31;;;;;;;35.43;12.55;;;;;;;;;;1750498;82;25438;-60
2022/12/25 06:07:59;;;;;;;36.23;12.28;;;;;;;;;;1750348;82;27320;-60
2022/12/25 06:10:28;;;;;;;38.10;14.93;;;;;;;;;;1750548;82;25604;-60
2022/12/25 06:12:54;;;;;;;24.40;8.40;;;;;;;;;;1750511;82;25419;-59
2022/12/25 06:15:21;;;;;;;36.77;13.70;;;;;;;;;;1750322;82;34648;-59
2022/12/25 06:17:47;;;;;;;39.08;13.50;;;;;;;;;;1750363;82;25359;-60
2022/12/25 06:20:16;;;;;;;38.63;13.55;;;;;;;;;;1750323;82;27433;-60
2022/12/25 06:22:42;;;;;;;22.30;9.63;;;;;;;;;;1750455;82;25626;-59
2022/12/25 06:25:10;;;;;;;40.33;13.20;;;;;;;;;;1750318;82;26871;-60
2022/12/25 06:27:36;;;;;;;40.40;15.00;;;;;;;;;;1750549;82;25710;-59
2022/12/25 06:30:07;;;;;;;34.50;12.85;;;;;;;;;;1750364;82;32421;-59
2022/12/25 06:32:33;;;;;;;38.17;13.03;;;;;;;;;;1750363;82;27310;-58
2022/12/25 06:34:58;;;;;;;39.17;15.07;;;;;;;;;;1750227;82;30190;-60
2022/12/25 06:37:27;;;;;;;37.50;15.43;;;;;;;;;;1750304;82;26834;-60
2022/12/25 06:39:56;;;;;;;29.12;11.10;;;;;;;;;;1748866;82;26674;-58
2022/12/25 06:42:25;;;;;;;42.78;17.65;;;;;;;;;;1750525;82;25542;-60
2022/12/25 06:44:52;;;;;;;30.00;18.20;;;;;;;;;;1750602;82;27443;-58
2022/12/25 06:47:19;;;;;;;40.12;14.30;;;;;;;;;;1750254;82;25387;-60
2022/12/25 06:49:45;;;;;;;37.30;16.07;;;;;;;;;;1750323;82;25869;-59
2022/12/25 06:52:11;;;;;;;44.75;19.82;;;;;;;;;;1748631;82;34701;-59
2022/12/25 06:54:36;;;;;;;43.40;26.27;;;;;;;;;;1750312;82;32719;-60
2022/12/25 06:57:02;;;;;;;42.58;30.82;;;;;;;;;;1750311;82;27352;-60
2022/12/25 06:59:28;;;;;;;49.43;37.70;;;;;;;;;;1750246;82;32149;-59
2022/12/25 07:01:57;;;;;;;52.13;45.97;;;;;;;;;;1750122;81;25350;-58
2022/12/25 07:04:37;;;;;;;64.05;52.65;;;;;;;;;;1750408;82;34720;-58
2022/12/25 07:07:06;;;;;;;77.22;68.78;;;;;;;;;;1749719;82;25537;-59
2022/12/25 07:09:34;;;;;;;43.92;21.87;;;;;;;;;;1750293;82;27337;-58
2022/12/25 07:12:13;;;;;;;42.48;22.27;;;;;;;;;;1750220;82;25421;-59
2022/12/25 07:14:47;;;;;;;55.38;37.60;;;;;;;;;;1750428;82;25612;-59
2022/12/25 07:17:16;;;;;;;67.35;60.48;;;;;;;;;;1750308;82;25938;-58
2022/12/25 07:19:45;;;;;;;61.10;55.40;;;;;;;;;;1750469;82;25508;-60
2022/12/25 07:22:15;;;;;;;74.62;66.47;;;;;;;;;;1750384;82;29543;-59
2022/12/25 07:24:42;;;;;;;91.25;82.35;;;;;;;;;;1748727;82;25560;-60
2022/12/25 07:27:08;;;;;;;94.87;85.17;;;;;;;;;;1750339;82;25401;-58
2022/12/25 07:29:34;;;;;;;95.85;86.40;;;;;;;;;;1750251;82;34732;-59
2022/12/25 07:32:00;;;;;;;97.22;87.37;;;;;;;;;;1750289;82;32594;-60
2022/12/25 07:34:26;;;;;;;95.27;86.23;;;;;;;;;;1724012;82;27323;-59
2022/12/25 07:36:54;;;;;;;99.87;89.47;;;;;;;;;;1750187;82;30712;-59
2022/12/25 07:39:23;;;;;;;94.80;85.70;;;;;;;;;;1750345;82;25466;-59
2022/12/25 07:41:49;;;;;;;97.85;87.95;;;;;;;;;;1750345;82;25636;-59
2022/12/25 07:44:15;;;;;;;97.35;87.60;;;;;;;;;;1750284;82;31800;-58
2022/12/25 07:46:42;;;;;;;98.95;89.25;;;;;;;;;;1750188;80;27407;-59
2022/12/25 07:49:10;;;;;;;100.30;89.83;;;;;;;;;;1750149;82;25474;-58
2022/12/25 07:51:38;;;;;;;95.70;86.57;;;;;;;;;;1750364;82;25628;-60
2022/12/25 07:54:07;;;;;;;101.95;91.80;;;;;;;;;;1750232;82;25655;-59
2022/12/25 07:56:33;;;;;;;94.92;86.15;;;;;;;;;;1750433;82;25378;-60
2022/12/25 07:58:59;;;;;;;100.72;90.50;;;;;;;;;;1750280;82;27390;-60
2022/12/25 08:01:28;;;;;;;93.33;84.72;;;;;;;;;;1750182;81;25434;-61
2022/12/25 08:03:59;;;;;;;95.55;86.20;;;;;;;;;;1750555;82;25544;-59
2022/12/25 08:06:30;;;;;;;95.20;86.00;;;;;;;;;;1750286;82;25783;-60
2022/12/25 08:09:06;;;;;;;97.62;87.92;;;;;;;;;;1750341;82;25578;-60
2022/12/25 08:11:32;;;;;;;41.53;20.95;;;;;;;;;;1748892;82;27581;-60
2022/12/25 08:14:00;;;;;;;48.52;27.93;;;;;;;;;;1750140;80;25530;-59
2022/12/25 08:16:28;;;;;;;42.78;14.98;;;;;;;;;;1750281;82;25469;-60
2022/12/25 08:18:54;;;;;;;38.63;16.10;;;;;;;;;;1750290;82;25579;-61
2022/12/25 08:21:20;;;;;;;52.35;26.42;;;;;;;;;;1750258;82;25422;-61
2022/12/25 08:23:47;;;;;;;67.50;60.15;;;;;;;;;;1750266;82;27383;-61
2022/12/25 08:26:19;;;;;;;;;;;;;;;;;;1752899;82;25586;-59
2022/12/25 08:28:49;;;;;;;89.50;81.05;;;;;;;;;;1735227;82;25628;-60
2022/12/25 08:31:21;;;;;;;96.12;86.85;;;;;;;;;;1704174;84;25626;-59
2022/12/25 08:33:51;;;;;;;98.92;88.67;;;;;;;;;;1702397;84;25557;-59
2022/12/25 08:36:21;;;;;;;;;;;;;;;;;;1752871;82;29604;-60
2022/12/25 08:38:49;;;;;;;98.62;88.62;;;;;;;;;;1734928;82;25486;-60
2022/12/25 08:41:18;;;;;;;98.95;88.58;;;;;;;;;;1702240;84;25549;-60
2022/12/25 08:43:46;;;;;;;100.45;90.22;;;;;;;;;;1750393;82;25666;-59
2022/12/25 08:46:15;;;;;;;105.85;94.67;;;;;;;;;;1750299;82;25623;-59
2022/12/25 08:48:45;;;;;;;99.67;89.58;;;;;;;;;;1750442;82;28211;-60
2022/12/25 08:51:15;;;;;;;77.62;51.02;;;;;;;;;;1750178;82;27001;-59
2022/12/25 08:53:44;;;;;;;102.67;91.70;;;;;;;;;;1750239;82;25569;-60
2022/12/25 08:56:14;;;;;;;103.67;92.80;;;;;;;;;;1750222;82;25611;-60
2022/12/25 08:58:43;;;;;;;;;;;;;;;;;;1751530;82;25656;-60
2022/12/25 09:01:13;;;;;;;101.42;91.12;;;;;;;;;;1735219;82;27493;-60
2022/12/25 09:03:39;;;;;;;101.82;91.35;;;;;;;;;;1690515;84;25821;-60
2022/12/25 09:06:12;;;;;;;105.32;93.72;;;;;;;;;;1686608;85;25451;-60
2022/12/25 09:08:41;;;;;;;104.55;93.35;;;;;;;;;;1685489;84;25666;-60
2022/12/25 09:11:09;;;;;;;;;;;;;;;;;;1689246;85;25440;-60
2022/12/25 09:13:35;;;;;;;96.57;87.37;;;;;;;;;;1697625;84;27458;-61
2022/12/25 09:16:08;;;;;;;102.53;91.47;;;;;;;;;;1696033;84;25856;-57
2022/12/25 09:18:36;;;;;;;103.02;92.53;;;;;;;;;;1696160;84;25491;-61
2022/12/25 09:21:05;;;;;;;103.00;92.10;;;;;;;;;;1696052;84;25693;-59
2022/12/25 09:23:33;;;;;;;70.37;54.73;;;;;;;;;;1696114;84;25635;-59
2022/12/25 09:26:03;;;;;;;47.75;21.45;;;;;;;;;;1696069;84;27413;-59
2022/12/25 09:28:33;;;;;;;49.63;21.50;;;;;;;;;;1695977;84;25480;-60
2022/12/25 09:31:00;;;;;;;41.15;19.92;;;;;;;;;;1696162;84;25571;-60
2022/12/25 09:33:28;;;;;;;59.75;31.17;;;;;;;;;;1696023;84;25635;-60
2022/12/25 09:35:58;;;;;;;51.02;44.50;;;;;;;;;;1696286;84;25475;-60
2022/12/25 09:38:27;;;;;;;;;;;;;;;;;;1698553;84;27443;-60
2022/12/25 09:41:06;;;;;;;56.15;41.28;;;;;;;;;;1696137;84;25832;-59
2022/12/25 09:43:39;;;;;;;69.92;63.38;;;;;;;;;;1696274;84;25484;-60
2022/12/25 09:46:09;;;;;;;57.98;44.30;;;;;;;;;;1694733;84;25619;-60
2022/12/25 09:48:36;;;;;;;47.33;21.62;;;;;;;;;;1696104;84;25594;-60
2022/12/25 09:51:12;;;;;;;48.70;26.33;;;;;;;;;;1696058;84;27547;-59
2022/12/25 09:53:41;;;;;;;95.32;85.55;;;;;;;;;;1696141;84;25436;-60
2022/12/25 09:56:20;;;;;;;84.62;75.87;;;;;;;;;;1696134;84;25576;-60
2022/12/25 09:58:48;;;;;;;90.25;80.85;;;;;;;;;;1696067;84;25740;-60
2022/12/25 10:01:34;;;;;;;50.20;20.32;;;;;;;;;;1696118;84;25491;-60
2022/12/25 10:04:38;;;;;;;50.90;20.80;;;;;;;;;;1741243;81;27348;-60
2022/12/25 10:07:08;;;;;;;56.00;23.98;;;;;;;;;;1748855;82;25403;-59
2022/12/25 10:09:43;;;;;;;51.13;22.22;;;;;;;;;;1750592;81;25391;-57
2022/12/25 10:12:16;;;;;;;53.40;22.58;;;;;;;;;;1750617;81;25679;-60
2022/12/25 10:15:00;;;;;;;75.60;67.62;;;;;;;;;;1750616;81;25386;-60
2022/12/25 10:17:42;;;;;;;65.10;49.93;;;;;;;;;;1750610;82;27337;-58
2022/12/25 10:20:12;;;;;;;101.27;91.28;;;;;;;;;;1747562;81;25938;-60
2022/12/25 10:22:48;;;;;;;102.15;91.90;;;;;;;;;;1749797;81;25619;-59
2022/12/25 10:25:18;;;;;;;101.07;90.70;;;;;;;;;;1750586;81;25624;-59
2022/12/25 10:27:48;;;;;;;76.53;66.90;;;;;;;;;;1749464;81;25426;-62
2022/12/25 10:30:24;;;;;;;77.32;68.97;;;;;;;;;;1749668;81;27444;-62
2022/12/25 10:32:52;;;;;;;102.30;92.25;;;;;;;;;;1750536;82;25614;-60
2022/12/25 10:35:22;;;;;;;57.67;23.45;;;;;;;;;;1750611;81;25538;-60
2022/12/25 10:37:58;;;;;;;56.92;23.42;;;;;;;;;;1750632;81;25724;-61
2022/12/25 10:40:47;;;;;;;62.05;24.15;;;;;;;;;;1750649;81;25589;-61
2022/12/25 10:43:26;;;;;;;51.33;21.52;;;;;;;;;;1750762;82;27395;-60
2022/12/25 10:45:52;;;;;;;55.65;22.73;;;;;;;;;;1749958;81;25513;-61
2022/12/25 10:48:22;;;;;;;53.25;21.93;;;;;;;;;;1750541;82;25632;-59
2022/12/25 10:50:50;;;;;;;51.18;21.05;;;;;;;;;;1750544;82;25670;-60
2022/12/25 10:53:26;;;;;;;58.17;22.75;;;;;;;;;;1750605;82;25538;-60
2022/12/25 10:56:03;;;;;;;51.33;22.93;;;;;;;;;;1750622;82;27688;-61
2022/12/25 10:58:33;;;;;;;49.98;22.85;;;;;;;;;;1750635;81;25572;-61
2022/12/25 11:01:00;;;;;;;;;;;;;;;;;;1753134;82;25512;-60
2022/12/25 11:03:34;;;;;;;96.45;87.27;;;;;;;;;;1749501;81;25749;-60
2022/12/25 11:06:05;;;;;;;63.17;50.23;;;;;;;;;;1748527;82;25397;-60
2022/12/25 11:08:35;;;;;;;99.90;90.15;;;;;;;;;;1748502;82;27422;-59
2022/12/25 11:11:05;;;;;;;101.12;91.63;;;;;;;;;;1748338;82;27048;-60
2022/12/25 11:13:39;;;;;;;97.42;88.33;;;;;;;;;;1748427;81;25521;-60
2022/12/25 11:16:27;;;;;;;98.92;89.30;;;;;;;;;;1748485;81;26328;-61
2022/12/25 11:18:56;;;;;;;101.97;92.15;;;;;;;;;;1748513;81;25614;-60
2022/12/25 11:21:29;;;;;;;99.45;89.80;;;;;;;;;;1748565;81;27269;-59
2022/12/25 11:24:02;;;;;;;100.30;90.65;;;;;;;;;;1748380;82;25543;-61
2022/12/25 11:26:38;;;;;;;96.32;87.33;;;;;;;;;;1748437;81;25556;-60
2022/12/25 11:29:07;;;;;;;47.93;20.37;;;;;;;;;;1746498;81;25671;-62
2022/12/25 11:31:37;;;;;;;49.20;19.37;;;;;;;;;;1747876;81;25459;-60
2022/12/25 11:34:19;;;;;;;46.13;19.70;;;;;;;;;;1748446;81;27494;-63
2022/12/25 11:36:49;;;;;;;40.75;18.12;;;;;;;;;;1748392;81;25389;-61
2022/12/25 11:39:31;;;;;;;42.75;19.15;;;;;;;;;;1748538;81;25596;-58
2022/12/25 11:42:09;;;;;;;96.08;87.42;;;;;;;;;;1747864;81;25640;-60
2022/12/25 11:44:45;;;;;;;95.28;86.45;;;;;;;;;;1746627;81;25422;-61
2022/12/25 11:47:27;;;;;;;97.70;88.75;;;;;;;;;;1741245;81;27354;-59
2022/12/25 11:50:02;;;;;;;94.40;85.90;;;;;;;;;;1748490;82;25572;-60
2022/12/25 11:52:35;;;;;;;101.30;91.95;;;;;;;;;;1747273;81;25469;-62
2022/12/25 11:55:20;;;;;;;98.33;89.37;;;;;;;;;;1748379;82;25683;-60
2022/12/25 11:57:50;;;;;;;96.72;87.78;;;;;;;;;;1748597;82;25405;-62
2022/12/25 12:00:20;;;;;;;100.87;91.70;;;;;;;;;;1747375;81;27499;-61
2022/12/25 12:03:10;;;;;;;99.25;89.32;;;;;;;;;;1746679;82;25460;-61
2022/12/25 12:05:40;;;;;;;96.37;87.55;;;;;;;;;;1742474;81;25548;-62
2022/12/25 12:08:10;;;;;;;98.58;89.20;;;;;;;;;;1747655;81;29195;-61
2022/12/25 12:11:14;;;;;;;93.55;84.75;;;;;;;;;;1748486;81;25560;-61
2022/12/25 12:13:38;;;;;;;92.08;83.82;;;;;;;;;;1748790;81;26839;-61
2022/12/25 12:16:08;;;;;;;96.78;88.17;;;;;;;;;;1747712;81;25624;-59
2022/12/25 12:18:34;;;;;;;95.17;87.05;;;;;;;;;;1748592;82;25526;-62
2022/12/25 12:21:08;;;;;;;89.77;81.08;;;;;;;;;;1748346;82;25679;-61
2022/12/25 12:23:53;;;;;;;62.75;56.00;;;;;;;;;;1748458;82;25552;-61
2022/12/25 12:26:23;;;;;;;101.25;92.15;;;;;;;;;;1748417;81;29624;-60
2022/12/25 12:28:53;;;;;;;90.42;81.95;;;;;;;;;;1747167;81;25402;-61
2022/12/25 12:31:19;;;;;;;89.03;80.57;;;;;;;;;;1748378;82;25562;-60
2022/12/25 12:33:58;;;;;;;87.72;79.55;;;;;;;;;;1748483;81;35161;-60
2022/12/25 12:36:27;;;;;;;101.83;92.87;;;;;;;;;;1748895;81;25543;-62
2022/12/25 12:38:57;;;;;;;94.28;86.35;;;;;;;;;;1748733;82;27353;-60
2022/12/25 12:41:27;;;;;;;;;;;;;;;;;;1750989;81;25537;-62
2022/12/25 12:43:58;;;;;;;95.70;87.27;;;;;;;;;;1737869;82;25622;-61
2022/12/25 12:46:31;;;;;;;97.47;88.52;;;;;;;;;;1707011;84;25666;-61
2022/12/25 12:49:24;;;;;;;102.75;93.25;;;;;;;;;;1703023;84;25690;-62
2022/12/25 12:52:03;;;;;;;97.27;88.15;;;;;;;;;;1654434;86;27347;-61
2022/12/25 12:54:29;;;;;;;99.10;90.28;;;;;;;;;;1644558;86;25506;-60
2022/12/25 12:56:59;;;;;;;98.10;89.42;;;;;;;;;;1654418;86;25496;-60
2022/12/25 12:59:29;;;;;;;97.20;88.37;;;;;;;;;;1653087;85;25648;-61
2022/12/25 13:02:18;;;;;;;95.77;87.57;;;;;;;;;;1653190;83;25737;-61
2022/12/25 13:04:57;;;;;;;99.47;90.60;;;;;;;;;;1654505;86;27507;-60
2022/12/25 13:07:45;;;;;;;97.37;88.50;;;;;;;;;;1653097;85;25690;-60
2022/12/25 13:10:32;;;;;;;99.83;90.95;;;;;;;;;;1607197;89;25678;-60
2022/12/25 13:13:07;;;;;;;97.60;88.67;;;;;;;;;;1607107;89;25682;-62
2022/12/25 13:15:37;;;;;;;99.25;90.42;;;;;;;;;;1605960;89;25638;-61
2022/12/25 13:18:09;;;;;;;98.67;90.03;;;;;;;;;;1607138;89;27423;-61
2022/12/25 13:20:44;;;;;;;98.70;89.70;;;;;;;;;;1607127;89;25556;-61
2022/12/25 13:23:28;;;;;;;101.18;91.72;;;;;;;;;;1607104;89;25618;-62
2022/12/25 13:25:58;;;;;;;108.05;97.82;;;;;;;;;;1646689;84;25711;-61
2022/12/25 13:28:27;;;;;;;104.43;94.60;;;;;;;;;;1697376;84;25433;-61
2022/12/25 13:30:55;;;;;;;;;;;;;;;;;;1700916;84;27411;-61
2022/12/25 13:33:23;;;;;;;100.62;91.15;;;;;;;;;;1697073;84;25622;-62
2022/12/25 13:35:50;;;;;;;104.38;94.60;;;;;;;;;;1698432;84;25590;-61
2022/12/25 13:38:20;;;;;;;106.65;96.25;;;;;;;;;;1698390;84;25721;-62
2022/12/25 13:43:41;;;;;;;109.63;98.92;;;;;;;;;;1698358;84;27347;-62
2022/12/25 13:46:13;;;;;;;112.42;101.45;;;;;;;;;;1698620;83;25310;-62
2022/12/25 13:48:39;;;;;;;106.75;96.50;;;;;;;;;;1725658;83;25572;-61
2022/12/25 13:51:06;;;;;;;113.57;101.53;;;;;;;;;;1725670;83;32973;-60
2022/12/25 13:53:36;;;;;;;118.17;103.40;;;;;;;;;;1725661;83;25551;-61
2022/12/25 13:56:05;;;;;;;;;;;;;;;;;;1728212;83;27294;-61
2022/12/25 13:58:35;;;;;;;104.95;94.47;;;;;;;;;;1725692;83;25468;-61
2022/12/25 14:01:05;;;;;;;105.17;94.75;;;;;;;;;;1725722;83;25530;-61
2022/12/25 14:03:40;;;;;;;105.17;94.80;;;;;;;;;;1725433;83;25753;-62
2022/12/25 14:06:19;;;;;;;101.87;92.15;;;;;;;;;;1725473;83;25618;-61
2022/12/25 14:08:50;;;;;;;101.67;92.05;;;;;;;;;;1725380;83;29271;-62
2022/12/25 14:11:22;;;;;;;101.15;91.60;;;;;;;;;;1725438;83;25834;-62
2022/12/25 14:13:56;;;;;;;103.07;93.60;;;;;;;;;;1725470;83;25601;-61
2022/12/25 14:16:26;;;;;;;108.52;98.05;;;;;;;;;;1725401;83;25533;-61
2022/12/25 14:18:55;;;;;;;109.60;98.72;;;;;;;;;;1725542;83;25627;-61
2022/12/25 14:21:34;;;;;;;78.57;70.05;;;;;;;;;;1700646;83;27366;-61
2022/12/25 14:24:12;;;;;;;76.90;69.47;;;;;;;;;;1725426;83;25612;-61
2022/12/25 14:26:39;;;;;;;110.90;99.22;;;;;;;;;;1725455;83;25640;-60
2022/12/25 14:29:08;;;;;;;112.88;101.70;;;;;;;;;;1725267;83;25784;-61
2022/12/25 14:31:37;;;;;;;105.17;95.30;;;;;;;;;;1734990;82;25533;-61
2022/12/25 14:34:08;;;;;;;108.55;97.78;;;;;;;;;;1734965;82;27397;-60
2022/12/25 14:36:37;;;;;;;108.10;97.60;;;;;;;;;;1701309;84;25928;-60
2022/12/25 14:39:07;;;;;;;110.35;99.25;;;;;;;;;;1750589;82;25583;-61
2022/12/25 14:41:37;;;;;;;104.20;94.42;;;;;;;;;;1750272;82;27742;-62
2022/12/25 14:44:29;;;;;;;103.05;93.22;;;;;;;;;;1750273;82;25389;-62
2022/12/25 14:47:19;;;;;;;103.27;93.37;;;;;;;;;;1746161;82;27308;-60
2022/12/25 14:49:51;;;;;;;102.02;91.92;;;;;;;;;;1750229;82;25607;-62
2022/12/25 14:52:27;;;;;;;101.65;91.45;;;;;;;;;;1750389;82;25389;-61
2022/12/25 14:54:59;;;;;;;104.12;93.72;;;;;;;;;;1750160;82;25598;-61
2022/12/25 14:57:39;;;;;;;103.00;93.60;;;;;;;;;;1750397;82;25412;-61
2022/12/25 15:00:25;;;;;;;106.47;95.57;;;;;;;;;;1750287;82;27403;-61
2022/12/25 15:02:55;;;;;;;106.47;96.32;;;;;;;;;;1749695;82;25579;-61
2022/12/25 15:05:28;;;;;;;103.17;93.05;;;;;;;;;;1747151;81;25629;-60
2022/12/25 15:08:07;;;;;;;107.22;96.57;;;;;;;;;;1748204;82;25677;-62
2022/12/25 15:10:39;;;;;;;107.03;95.60;;;;;;;;;;1731236;82;25610;-62
2022/12/25 15:13:08;;;;;;;106.17;95.32;;;;;;;;;;1748227;82;27992;-61
2022/12/25 15:15:37;;;;;;;106.20;95.03;;;;;;;;;;1748137;82;25395;-63
2022/12/25 15:18:05;;;;;;;107.07;96.17;;;;;;;;;;1748310;82;25538;-63
2022/12/25 15:20:35;;;;;;;109.78;98.07;;;;;;;;;;1748085;82;25674;-64
2022/12/25 15:23:05;;;;;;;111.88;97.27;;;;;;;;;;1748140;82;25363;-61
2022/12/25 15:25:31;;;;;;;108.40;97.12;;;;;;;;;;1748195;82;27396;-62
2022/12/25 15:27:59;;;;;;;107.23;95.83;;;;;;;;;;1748085;82;25604;-61
2022/12/25 15:30:26;;;;;;;108.55;98.00;;;;;;;;;;1724751;82;25433;-62
2022/12/25 15:32:52;;;;;;;113.30;101.00;;;;;;;;;;1748060;82;25750;-60
2022/12/25 15:35:21;;;;;;;112.77;100.33;;;;;;;;;;1748084;82;25437;-61
2022/12/25 15:37:47;;;;;;;109.07;97.12;;;;;;;;;;1748176;82;27481;-61
2022/12/25 15:40:20;;;;;;;108.57;97.00;;;;;;;;;;1748050;82;25440;-61
2022/12/25 15:42:49;;;;;;;89.87;68.83;;;;;;;;;;1735193;82;25428;-62
2022/12/25 15:45:29;;;;;;;82.95;36.42;;;;;;;;;;1710139;82;25845;-63
2022/12/25 15:47:57;;;;;;;91.22;38.83;;;;;;;;;;1735311;82;25575;-61
2022/12/25 15:50:24;;;;;;;80.07;38.85;;;;;;;;;;1735224;82;27354;-63
2022/12/25 15:52:54;;;;;;;77.27;37.28;;;;;;;;;;1748084;82;25421;-61
2022/12/25 15:55:23;;;;;;;87.90;37.40;;;;;;;;;;1748261;82;25433;-60
2022/12/25 15:57:51;;;;;;;95.72;38.35;;;;;;;;;;1748217;82;27758;-62
2022/12/25 16:00:22;;;;;;;93.78;37.88;;;;;;;;;;1748160;82;25538;-61
2022/12/25 16:02:51;;;;;;;85.62;38.48;;;;;;;;;;1748161;82;27004;-60
2022/12/25 16:05:21;;;;;;;96.65;38.23;;;;;;;;;;1749078;82;25532;-61
2022/12/25 16:07:50;;;;;;;91.45;38.15;;;;;;;;;;1749935;82;25614;-61
2022/12/25 16:10:19;;;;;;;105.07;38.70;;;;;;;;;;1750465;82;32205;-61
2022/12/25 16:12:48;;;;;;;96.27;39.70;;;;;;;;;;1750547;82;25561;-62
2022/12/25 16:15:17;;;;;;;97.62;39.15;;;;;;;;;;1750373;82;27426;-61
2022/12/25 16:17:43;;;;;;;98.67;39.23;;;;;;;;;;1750361;82;25604;-61
2022/12/25 16:20:14;;;;;;;96.67;38.85;;;;;;;;;;1748586;82;25632;-61
2022/12/25 16:22:43;;;;;;;84.07;33.23;;;;;;;;;;1750209;82;25744;-62